Time;durP1;ratioP1;P1;durP2;ratioP2;P2;SDS_P1;SDS_P2;PMS_P1;PMS_P2;Temp;Humidity;BMP_temperature;BMP_pressure;BME280_temperature;BME280_humidity;BME280_pressure;Samples;Min_cycle;Max_cycle;Signal;HPM_P1;HPM_P2
2021/10/22 00:02:18;;;;;;;0.35;0.30;;;20.90;74.70;;;;;;5106758;28;20095;-34
2021/10/22 00:04:44;;;;;;;0.98;0.50;;;20.90;74.70;;;;;;5106811;28;20032;-34
2021/10/22 00:07:11;;;;;;;0.40;0.40;;;20.90;74.70;;;;;;5106736;28;20156;-34
2021/10/22 00:09:37;;;;;;;0.40;0.40;;;20.90;74.70;;;;;;5106599;28;20050;-34
2021/10/22 00:12:03;;;;;;;0.40;0.40;;;20.90;74.60;;;;;;5106467;28;20053;-34
2021/10/22 00:14:29;;;;;;;0.40;0.40;;;20.90;74.70;;;;;;5106661;28;20055;-34
2021/10/22 00:16:55;;;;;;;0.47;0.45;;;20.90;74.60;;;;;;5106434;28;20024;-34
2021/10/22 00:19:22;;;;;;;0.52;0.52;;;20.90;74.60;;;;;;5095369;28;20119;-34
2021/10/22 00:21:48;;;;;;;0.60;0.60;;;20.90;74.60;;;;;;5086208;28;20031;-34
2021/10/22 00:24:14;;;;;;;1.10;0.50;;;20.90;74.60;;;;;;5094782;28;20050;-34
2021/10/22 00:26:40;;;;;;;0.52;0.50;;;20.90;74.60;;;;;;5105736;28;20032;-35
2021/10/22 00:29:06;;;;;;;0.70;0.60;;;20.90;74.50;;;;;;5106413;28;20080;-35
2021/10/22 00:31:32;;;;;;;1.05;0.50;;;20.90;74.40;;;;;;5104895;28;20748;-35
2021/10/22 00:33:58;;;;;;;0.77;0.70;;;20.90;74.40;;;;;;5106089;28;20032;-35
2021/10/22 00:36:25;;;;;;;0.60;0.60;;;20.90;74.40;;;;;;5106147;28;20027;-36
2021/10/22 00:38:51;;;;;;;0.50;0.50;;;20.90;74.30;;;;;;5104802;28;20080;-35
2021/10/22 00:41:18;;;;;;;0.40;0.40;;;20.90;74.30;;;;;;5104842;28;20083;-35
2021/10/22 00:43:45;;;;;;;0.70;0.60;;;20.90;74.20;;;;;;5105839;28;20035;-35
2021/10/22 00:46:11;;;;;;;0.55;0.43;;;20.90;74.30;;;;;;5105925;28;20024;-35
2021/10/22 00:48:37;;;;;;;0.65;0.65;;;20.90;74.20;;;;;;5105992;28;20111;-36
2021/10/22 00:51:04;;;;;;;1.00;0.57;;;20.90;74.20;;;;;;5105870;28;20030;-35
2021/10/22 00:53:31;;;;;;;0.55;0.55;;;20.90;75.00;;;;;;5104350;28;20062;-35
2021/10/22 00:55:57;;;;;;;0.70;0.70;;;20.90;74.10;;;;;;5104164;28;20028;-35
2021/10/22 00:58:24;;;;;;;0.55;0.40;;;20.90;74.20;;;;;;5105878;28;20028;-35
2021/10/22 01:00:50;;;;;;;3.22;0.70;;;20.90;74.20;;;;;;5104247;28;20104;-35
2021/10/22 01:03:16;;;;;;;0.60;0.60;;;20.90;74.20;;;;;;5105430;28;20040;-35
2021/10/22 01:05:43;;;;;;;1.10;0.63;;;20.90;74.20;;;;;;5105730;28;20073;-35
2021/10/22 01:08:10;;;;;;;1.00;0.77;;;20.90;74.10;;;;;;5103486;28;20048;-35
2021/10/22 01:10:39;;;;;;;0.65;0.65;;;20.80;74.10;;;;;;5105322;28;20036;-35
2021/10/22 01:13:06;;;;;;;0.75;0.60;;;20.80;74.00;;;;;;5103575;28;20028;-35
2021/10/22 01:15:33;;;;;;;0.93;0.50;;;20.90;73.90;;;;;;5105374;28;20092;-35
2021/10/22 01:18:00;;;;;;;0.73;0.63;;;20.80;73.80;;;;;;5105411;28;20032;-35
2021/10/22 01:20:26;;;;;;;;;;;20.80;73.70;;;;;;5105937;28;20024;-35
2021/10/22 01:22:53;;;;;;;0.47;0.47;;;20.80;73.50;;;;;;5104027;28;19912;-35
2021/10/22 01:25:21;;;;;;;1.30;0.50;;;20.80;73.50;;;;;;5105076;28;20024;-34
2021/10/22 01:27:48;;;;;;;0.65;0.60;;;20.80;73.40;;;;;;5105021;28;20842;-35
2021/10/22 01:30:15;;;;;;;0.68;0.65;;;20.80;73.30;;;;;;5105193;28;20035;-35
2021/10/22 01:32:42;;;;;;;0.77;0.60;;;20.80;73.20;;;;;;5105236;28;20046;-35
2021/10/22 01:35:09;;;;;;;0.60;0.50;;;20.80;73.30;;;;;;5104764;28;20020;-35
2021/10/22 01:37:36;;;;;;;0.65;0.65;;;20.80;73.20;;;;;;5104979;28;20032;-35
2021/10/22 01:40:04;;;;;;;0.60;0.60;;;20.80;73.20;;;;;;5105169;28;20032;-35
2021/10/22 01:42:30;;;;;;;0.68;0.50;;;20.70;73.10;;;;;;5104447;28;20058;-35
2021/10/22 01:44:56;;;;;;;0.65;0.65;;;20.80;73.20;;;;;;5104614;28;20024;-35
2021/10/22 01:47:23;;;;;;;0.50;0.50;;;20.80;73.10;;;;;;5104864;28;20047;-35
2021/10/22 01:49:50;;;;;;;;;;;20.70;73.10;;;;;;5105193;28;20115;-35
2021/10/22 01:52:16;;;;;;;0.60;0.50;;;20.70;73.10;;;;;;5104843;28;19919;-36
2021/10/22 01:54:42;;;;;;;0.60;0.60;;;20.70;73.00;;;;;;5103287;28;20407;-35
2021/10/22 01:57:10;;;;;;;0.60;0.50;;;20.70;73.10;;;;;;5104591;28;20097;-35
2021/10/22 01:59:36;;;;;;;0.60;0.60;;;20.70;73.10;;;;;;5104450;28;20048;-35
2021/10/22 02:02:03;;;;;;;0.70;0.60;;;20.70;73.00;;;;;;5103441;28;20865;-35
2021/10/22 02:04:31;;;;;;;1.00;0.70;;;20.70;73.80;;;;;;5102950;28;20016;-36
2021/10/22 02:06:57;;;;;;;0.90;0.60;;;20.70;73.00;;;;;;5104395;28;20048;-35
2021/10/22 02:09:23;;;;;;;0.70;0.70;;;20.70;73.00;;;;;;5104600;28;20035;-35
2021/10/22 02:11:49;;;;;;;0.60;0.52;;;20.70;73.10;;;;;;5104140;28;20032;-35
2021/10/22 02:14:15;;;;;;;0.60;0.60;;;20.60;73.00;;;;;;5104220;28;20028;-35
2021/10/22 02:16:43;;;;;;;0.82;0.77;;;20.70;73.00;;;;;;5103077;28;20032;-35
2021/10/22 02:19:09;;;;;;;1.27;0.43;;;20.60;72.90;;;;;;5102916;28;20024;-35
2021/10/22 02:21:36;;;;;;;0.98;0.70;;;20.60;73.00;;;;;;5103524;28;20040;-35
2021/10/22 02:24:02;;;;;;;0.68;0.50;;;20.60;73.00;;;;;;5101263;28;20376;-35
2021/10/22 02:26:28;;;;;;;0.75;0.70;;;20.60;73.00;;;;;;5098410;28;20036;-35
2021/10/22 02:28:54;;;;;;;0.60;0.60;;;20.60;72.90;;;;;;5083918;28;20128;-35
2021/10/22 02:31:20;;;;;;;0.60;0.50;;;20.60;72.90;;;;;;5083641;28;20557;-35
2021/10/22 02:33:47;;;;;;;0.60;0.60;;;20.60;73.00;;;;;;5083722;28;20024;-35
2021/10/22 02:36:13;;;;;;;0.73;0.63;;;20.60;72.90;;;;;;5083580;28;20040;-35
2021/10/22 02:38:39;;;;;;;0.85;0.65;;;20.60;73.00;;;;;;5083643;28;20028;-35
2021/10/22 02:41:05;;;;;;;0.70;0.60;;;20.60;73.00;;;;;;5083482;28;20039;-35
2021/10/22 02:43:31;;;;;;;1.08;0.80;;;20.60;73.00;;;;;;5083776;28;20028;-35
2021/10/22 02:45:58;;;;;;;0.68;0.68;;;20.50;73.00;;;;;;5083025;28;20059;-35
2021/10/22 02:48:24;;;;;;;1.27;1.02;;;20.50;73.00;;;;;;5082035;28;20025;-35
2021/10/22 02:50:50;;;;;;;0.63;0.60;;;20.50;73.00;;;;;;5083482;28;20082;-35
2021/10/22 02:53:16;;;;;;;0.60;0.60;;;20.50;73.00;;;;;;5083437;28;20037;-35
2021/10/22 02:55:42;;;;;;;0.70;0.70;;;20.50;73.00;;;;;;5083377;28;20028;-35
2021/10/22 02:58:08;;;;;;;0.95;0.65;;;20.50;72.90;;;;;;5102598;28;20030;-35
2021/10/22 03:00:35;;;;;;;0.82;0.60;;;20.50;73.00;;;;;;5103505;28;20051;-35
2021/10/22 03:03:01;;;;;;;0.70;0.70;;;20.50;73.00;;;;;;5103503;28;20028;-35
2021/10/22 03:05:31;;;;;;;1.10;0.60;;;20.50;73.00;;;;;;5103203;28;20020;-35
2021/10/22 03:07:58;;;;;;;0.85;0.80;;;20.50;73.00;;;;;;5103355;28;20127;-35
2021/10/22 03:10:24;;;;;;;0.60;0.60;;;20.50;73.10;;;;;;5103373;28;20039;-35
2021/10/22 03:12:50;;;;;;;0.70;0.70;;;20.50;73.10;;;;;;5101942;28;20020;-35
2021/10/22 03:15:16;;;;;;;0.70;0.70;;;20.40;73.00;;;;;;5103407;28;20020;-35
2021/10/22 03:17:43;;;;;;;0.70;0.70;;;20.40;73.00;;;;;;5101800;28;20035;-35
2021/10/22 03:20:09;;;;;;;0.77;0.70;;;20.40;73.00;;;;;;5103527;28;20020;-35
2021/10/22 03:22:35;;;;;;;0.80;0.70;;;20.40;73.00;;;;;;5102047;28;20054;-35
2021/10/22 03:25:02;;;;;;;1.20;0.63;;;20.40;73.00;;;;;;5103351;28;20034;-35
2021/10/22 03:27:28;;;;;;;0.75;0.60;;;20.40;73.00;;;;;;5102736;28;20028;-35
2021/10/22 03:29:55;;;;;;;0.57;0.57;;;20.40;73.10;;;;;;5103255;28;20059;-35
2021/10/22 03:32:21;;;;;;;0.70;0.70;;;20.40;73.10;;;;;;5105102;28;20103;-35
2021/10/22 03:34:47;;;;;;;0.70;0.70;;;20.40;73.00;;;;;;5107524;28;20020;-35
2021/10/22 03:37:13;;;;;;;0.82;0.80;;;20.40;73.10;;;;;;5106946;28;20036;-35
2021/10/22 03:39:40;;;;;;;0.70;0.70;;;20.30;73.10;;;;;;5107482;28;20016;-35
2021/10/22 03:42:06;;;;;;;0.95;0.75;;;20.30;73.10;;;;;;5107141;28;20043;-35
2021/10/22 03:44:32;;;;;;;0.90;0.80;;;20.30;73.00;;;;;;5105760;28;20020;-36
2021/10/22 03:46:59;;;;;;;0.65;0.65;;;20.30;73.10;;;;;;5106873;28;20087;-35
2021/10/22 03:49:25;;;;;;;2.05;0.80;;;20.30;73.10;;;;;;5106821;28;20028;-35
2021/10/22 03:51:51;;;;;;;0.75;0.75;;;20.30;73.00;;;;;;5106965;28;20043;-35
2021/10/22 03:54:17;;;;;;;0.80;0.80;;;20.30;73.10;;;;;;5107249;28;20020;-35
2021/10/22 03:56:43;;;;;;;0.70;0.70;;;20.30;73.10;;;;;;5106390;28;20036;-36
2021/10/22 03:59:10;;;;;;;0.95;0.70;;;20.30;73.10;;;;;;5107182;28;20020;-35
2021/10/22 04:01:36;;;;;;;1.50;0.80;;;20.30;73.10;;;;;;5106933;28;20039;-35
2021/10/22 04:04:02;;;;;;;1.40;0.77;;;20.30;73.10;;;;;;5106636;28;20054;-35
2021/10/22 04:06:28;;;;;;;1.00;0.82;;;20.30;73.10;;;;;;5106491;28;20028;-35
2021/10/22 04:08:54;;;;;;;1.10;0.68;;;20.30;73.10;;;;;;5106789;28;20055;-35
2021/10/22 04:11:20;;;;;;;1.13;0.80;;;20.20;73.10;;;;;;5106738;28;20479;-35
2021/10/22 04:13:46;;;;;;;1.00;0.90;;;20.20;73.10;;;;;;5106787;28;20028;-35
2021/10/22 04:16:13;;;;;;;1.38;1.00;;;20.20;73.00;;;;;;5106559;28;20031;-35
2021/10/22 04:18:39;;;;;;;1.00;0.70;;;20.20;73.10;;;;;;5106558;28;20052;-35
2021/10/22 04:21:05;;;;;;;0.80;0.68;;;20.20;73.10;;;;;;5106567;28;20485;-35
2021/10/22 04:23:31;;;;;;;0.80;0.80;;;20.20;73.10;;;;;;5106396;28;20039;-35
2021/10/22 04:25:57;;;;;;;0.80;0.80;;;20.20;73.10;;;;;;5102005;28;20032;-35
2021/10/22 04:28:23;;;;;;;0.82;0.82;;;20.20;73.10;;;;;;5106153;28;20024;-35
2021/10/22 04:30:50;;;;;;;0.85;0.77;;;20.20;73.10;;;;;;5105789;28;20024;-35
2021/10/22 04:33:16;;;;;;;0.90;0.80;;;20.20;73.20;;;;;;5106186;28;20020;-35
2021/10/22 04:35:42;;;;;;;0.82;0.82;;;20.20;73.10;;;;;;5106406;28;20016;-35
2021/10/22 04:40:47;;;;;;;0.90;0.60;;;20.10;73.10;;;;;;5106350;28;20069;-35
2021/10/22 04:43:15;;;;;;;1.00;0.80;;;20.10;73.10;;;;;;5104519;28;20039;-35
2021/10/22 04:45:42;;;;;;;0.95;0.70;;;20.10;73.10;;;;;;5106213;28;20032;-35
2021/10/22 04:48:11;;;;;;;;;;;20.10;73.10;;;;;;5106263;28;20051;-35
2021/10/22 04:50:44;;;;;;;0.60;0.60;;;20.10;73.10;;;;;;5105962;28;19904;-35
2021/10/22 04:53:10;;;;;;;1.08;0.80;;;20.10;73.10;;;;;;5105994;28;20024;-35
2021/10/22 04:55:39;;;;;;;1.03;0.90;;;20.10;73.20;;;;;;5093016;28;20046;-33
2021/10/22 04:58:06;;;;;;;2.00;0.88;;;20.10;73.80;;;;;;5104514;28;20062;-34
2021/10/22 05:00:32;;;;;;;1.77;0.77;;;20.10;73.10;;;;;;5105735;28;20043;-37
2021/10/22 05:02:58;;;;;;;0.93;0.88;;;20.10;73.10;;;;;;5105879;28;20118;-34
2021/10/22 05:05:25;;;;;;;2.60;0.95;;;20.10;73.20;;;;;;5105864;28;20027;-34
2021/10/22 05:07:51;;;;;;;0.73;0.73;;;20.10;73.10;;;;;;5105360;28;20138;-34
2021/10/22 05:10:17;;;;;;;0.98;0.80;;;20.10;73.20;;;;;;5105542;28;20016;-34
2021/10/22 05:12:43;;;;;;;1.52;0.88;;;20.10;73.20;;;;;;5105567;28;20051;-34
2021/10/22 05:15:10;;;;;;;1.17;0.80;;;20.10;73.20;;;;;;5105490;28;20092;-34
2021/10/22 05:17:36;;;;;;;0.70;0.70;;;20.10;73.20;;;;;;5105226;28;20038;-34
2021/10/22 05:20:04;;;;;;;1.73;0.98;;;20.10;73.20;;;;;;5105544;28;20080;-34
2021/10/22 05:22:30;;;;;;;0.70;0.70;;;20.10;73.20;;;;;;5105401;28;20028;-34
2021/10/22 05:24:56;;;;;;;0.60;0.60;;;20.00;73.10;;;;;;5105131;28;20024;-34
2021/10/22 05:27:22;;;;;;;0.87;0.80;;;20.00;73.20;;;;;;5104979;28;20024;-34
2021/10/22 05:29:49;;;;;;;0.95;0.60;;;20.00;73.20;;;;;;5103988;28;20031;-34
2021/10/22 05:32:15;;;;;;;0.77;0.77;;;20.00;73.20;;;;;;5103671;28;20032;-34
2021/10/22 05:34:41;;;;;;;1.08;0.80;;;20.00;73.90;;;;;;5105112;28;20024;-35
2021/10/22 05:37:07;;;;;;;0.52;0.52;;;20.00;73.20;;;;;;5105226;28;20441;-35
2021/10/22 05:39:33;;;;;;;0.98;0.73;;;20.00;73.20;;;;;;5104903;28;20028;-35
2021/10/22 05:41:59;;;;;;;0.82;0.80;;;20.00;73.20;;;;;;5104999;28;20028;-34
2021/10/22 05:44:26;;;;;;;0.80;0.80;;;20.00;73.20;;;;;;5105112;28;20024;-34
2021/10/22 05:46:53;;;;;;;0.73;0.60;;;20.00;73.20;;;;;;5104934;28;20024;-35
2021/10/22 05:49:20;;;;;;;1.20;1.02;;;20.00;73.30;;;;;;5104793;28;20020;-35
2021/10/22 05:51:47;;;;;;;0.70;0.70;;;20.00;73.20;;;;;;5104418;28;20040;-34
2021/10/22 05:54:13;;;;;;;0.90;0.65;;;20.00;73.30;;;;;;5103153;28;20122;-34
2021/10/22 05:56:39;;;;;;;0.55;0.50;;;20.00;73.30;;;;;;5104595;28;20036;-34
2021/10/22 05:59:06;;;;;;;0.95;0.90;;;20.00;73.30;;;;;;5104448;28;20016;-34
2021/10/22 06:01:32;;;;;;;1.10;0.80;;;20.00;73.30;;;;;;5104263;28;20051;-34
2021/10/22 06:03:58;;;;;;;1.00;0.75;;;20.00;73.30;;;;;;5104723;28;20032;-34
2021/10/22 06:06:24;;;;;;;1.08;0.80;;;20.00;73.30;;;;;;5104576;28;20496;-35
2021/10/22 06:08:51;;;;;;;1.10;0.77;;;20.00;73.30;;;;;;5104084;28;20058;-34
2021/10/22 06:11:18;;;;;;;1.57;1.00;;;20.00;73.30;;;;;;5104320;28;20083;-34
2021/10/22 06:13:44;;;;;;;1.65;0.63;;;20.00;73.30;;;;;;5104575;28;20042;-34
2021/10/22 06:16:11;;;;;;;1.20;0.80;;;20.00;73.60;;;;;;5104412;28;20038;-34
2021/10/22 06:18:45;;;;;;;2.20;0.75;;;20.00;73.30;;;;;;5104117;28;20024;-34
2021/10/22 06:21:23;;;;;;;1.13;0.88;;;20.00;73.30;;;;;;5104370;28;20032;-34
2021/10/22 06:23:55;;;;;;;0.82;0.80;;;20.00;73.30;;;;;;5104023;28;20052;-34
2021/10/22 06:26:22;;;;;;;0.98;0.90;;;20.00;73.30;;;;;;5103912;28;20185;-34
2021/10/22 06:28:49;;;;;;;0.93;0.65;;;20.00;73.40;;;;;;5092562;28;20060;-34
2021/10/22 06:31:16;;;;;;;0.68;0.60;;;19.90;73.30;;;;;;5083752;28;20045;-34
2021/10/22 06:33:42;;;;;;;1.20;0.90;;;19.90;73.30;;;;;;5083803;28;20559;-34
2021/10/22 06:36:09;;;;;;;1.55;0.70;;;19.90;73.30;;;;;;5083621;28;20048;-34
2021/10/22 06:38:35;;;;;;;1.05;0.80;;;19.90;73.30;;;;;;5083503;28;20071;-34
2021/10/22 06:41:02;;;;;;;1.08;0.70;;;19.90;73.30;;;;;;5082041;28;20523;-34
2021/10/22 06:43:28;;;;;;;0.60;0.60;;;19.90;73.30;;;;;;5067453;28;20028;-34
2021/10/22 06:45:54;;;;;;;0.93;0.80;;;19.90;73.30;;;;;;5083608;28;20088;-34
2021/10/22 06:48:21;;;;;;;0.80;0.77;;;19.90;73.30;;;;;;5083094;28;20024;-34
2021/10/22 06:50:47;;;;;;;0.95;0.85;;;19.90;73.30;;;;;;5083284;28;20025;-34
2021/10/22 06:53:14;;;;;;;1.17;0.67;;;19.90;73.30;;;;;;5083557;28;20029;-34
2021/10/22 06:55:40;;;;;;;0.80;0.80;;;19.90;73.30;;;;;;5094337;28;20086;-35
2021/10/22 06:58:06;;;;;;;1.90;0.70;;;19.90;73.30;;;;;;5102211;28;20492;-34
2021/10/22 07:00:33;;;;;;;0.63;0.57;;;19.90;73.30;;;;;;5103414;28;20047;-34
2021/10/22 07:03:00;;;;;;;0.75;0.70;;;19.90;73.30;;;;;;5103594;28;20028;-34
2021/10/22 07:07:55;;;;;;;1.33;0.85;;;19.90;73.40;;;;;;5102551;28;20412;-34
2021/10/22 07:10:21;;;;;;;0.75;0.70;;;19.90;73.30;;;;;;5101946;28;20024;-34
2021/10/22 07:12:48;;;;;;;0.98;0.77;;;19.90;73.40;;;;;;5103281;28;20032;-34
2021/10/22 07:15:15;;;;;;;0.77;0.77;;;19.90;73.30;;;;;;5103419;28;20031;-34
2021/10/22 07:17:42;;;;;;;0.75;0.75;;;19.90;73.30;;;;;;5103177;28;20077;-34
2021/10/22 07:20:11;;;;;;;0.70;0.70;;;19.90;73.40;;;;;;5102927;28;20028;-34
2021/10/22 07:22:46;;;;;;;1.40;0.77;;;19.90;73.40;;;;;;5103331;28;20036;-34
2021/10/22 07:25:12;;;;;;;0.55;0.55;;;19.90;73.40;;;;;;5102957;28;20431;-34
2021/10/22 07:27:38;;;;;;;0.93;0.90;;;19.90;73.30;;;;;;5103042;28;20023;-34
2021/10/22 07:30:05;;;;;;;0.73;0.73;;;19.80;73.30;;;;;;5103047;28;20107;-34
2021/10/22 07:32:31;;;;;;;0.57;0.57;;;19.80;73.40;;;;;;5103033;28;20300;-34
2021/10/22 07:34:58;;;;;;;0.75;0.70;;;19.80;73.30;;;;;;5103256;28;20054;-34
2021/10/22 07:37:24;;;;;;;0.77;0.77;;;19.80;73.30;;;;;;5103165;28;20091;-34
2021/10/22 07:39:51;;;;;;;0.70;0.60;;;19.80;73.20;;;;;;5102781;28;20024;-34
2021/10/22 07:42:17;;;;;;;1.05;0.90;;;19.80;73.30;;;;;;5103171;28;20057;-34
2021/10/22 07:44:43;;;;;;;0.57;0.57;;;19.80;73.30;;;;;;5103088;28;20024;-34
2021/10/22 07:47:10;;;;;;;0.70;0.70;;;19.80;73.30;;;;;;5101574;28;20024;-34
2021/10/22 07:49:36;;;;;;;0.82;0.82;;;19.80;73.30;;;;;;5102646;28;20028;-34
2021/10/22 07:52:02;;;;;;;1.25;0.80;;;19.80;73.30;;;;;;5102847;28;20099;-34
2021/10/22 07:54:28;;;;;;;0.70;0.70;;;19.80;73.30;;;;;;5102956;28;20023;-34
2021/10/22 07:56:54;;;;;;;0.82;0.65;;;19.80;73.30;;;;;;5102821;28;20020;-34
2021/10/22 07:59:21;;;;;;;0.57;0.50;;;19.80;73.40;;;;;;5102737;28;20074;-34
2021/10/22 08:01:47;;;;;;;0.60;0.60;;;19.80;73.30;;;;;;5102727;28;20043;-34
2021/10/22 08:04:13;;;;;;;0.50;0.50;;;19.80;74.10;;;;;;5102963;28;20040;-34
2021/10/22 08:06:39;;;;;;;0.68;0.68;;;19.80;73.30;;;;;;5102780;28;20095;-34
2021/10/22 08:09:06;;;;;;;1.13;0.70;;;19.80;73.40;;;;;;5102900;28;20032;-34
2021/10/22 08:11:32;;;;;;;0.95;0.60;;;19.80;73.40;;;;;;5102518;28;20819;-34
2021/10/22 08:13:59;;;;;;;1.10;0.60;;;19.80;73.40;;;;;;5102919;28;20037;-34
2021/10/22 08:16:25;;;;;;;1.05;0.90;;;19.80;73.40;;;;;;5102677;28;20017;-34
2021/10/22 08:18:51;;;;;;;0.60;0.60;;;19.80;73.40;;;;;;5105304;28;20028;-34
2021/10/22 08:21:22;;;;;;;0.73;0.70;;;19.80;73.40;;;;;;5106004;28;20057;-34
2021/10/22 08:23:49;;;;;;;1.10;0.70;;;19.80;73.40;;;;;;5104046;28;20324;-34
2021/10/22 08:26:19;;;;;;;0.90;0.90;;;19.80;73.40;;;;;;5093634;28;20024;-34
2021/10/22 08:28:45;;;;;;;0.82;0.70;;;19.80;73.40;;;;;;5106647;28;20163;-34
2021/10/22 08:31:12;;;;;;;0.65;0.65;;;19.80;73.40;;;;;;5106025;28;20035;-34
2021/10/22 08:33:38;;;;;;;0.80;0.50;;;19.80;73.40;;;;;;5106322;28;20031;-34
2021/10/22 08:36:08;;;;;;;0.70;0.70;;;19.80;73.50;;;;;;5106254;28;20769;-34
2021/10/22 08:38:35;;;;;;;1.08;0.80;;;19.80;73.40;;;;;;5106413;28;20058;-34
2021/10/22 08:41:02;;;;;;;0.80;0.70;;;19.80;73.50;;;;;;5105987;28;20024;-34
2021/10/22 08:43:28;;;;;;;0.93;0.70;;;19.80;73.40;;;;;;5106104;28;20182;-34
2021/10/22 08:45:58;;;;;;;1.65;0.60;;;19.80;73.40;;;;;;5106006;28;20036;-34
2021/10/22 08:48:25;;;;;;;0.70;0.70;;;19.80;73.40;;;;;;5106107;28;20107;-34
2021/10/22 08:50:52;;;;;;;0.80;0.70;;;19.80;73.40;;;;;;5105673;28;20092;-34
2021/10/22 08:53:18;;;;;;;0.85;0.70;;;19.80;73.50;;;;;;5104706;28;20039;-34
2021/10/22 08:55:44;;;;;;;0.73;0.63;;;19.80;73.40;;;;;;5105673;28;20810;-34
2021/10/22 08:58:12;;;;;;;0.52;0.52;;;19.80;73.40;;;;;;5104489;28;20028;-34
2021/10/22 09:00:38;;;;;;;0.57;0.50;;;19.80;73.50;;;;;;5105611;28;20121;-34
2021/10/22 09:03:22;;;;;;;0.80;0.80;;;19.70;73.40;;;;;;5105828;28;20059;-34
2021/10/22 09:06:02;;;;;;;0.90;0.90;;;19.70;73.50;;;;;;5105817;28;20048;-34
2021/10/22 09:08:33;;;;;;;0.60;0.60;;;19.80;73.50;;;;;;5105514;28;20048;-34
2021/10/22 09:11:00;;;;;;;0.77;0.50;;;19.70;73.40;;;;;;5105175;28;20091;-34
2021/10/22 09:13:28;;;;;;;0.95;0.88;;;19.70;73.50;;;;;;5104245;28;20035;-34
2021/10/22 09:15:56;;;;;;;1.15;0.70;;;19.70;73.40;;;;;;5105529;28;20058;-34
2021/10/22 09:18:24;;;;;;;1.30;0.70;;;19.70;73.40;;;;;;5105362;28;20024;-34
2021/10/22 09:20:52;;;;;;;0.88;0.80;;;19.70;74.20;;;;;;5104695;28;20445;-34
2021/10/22 09:23:32;;;;;;;1.15;0.90;;;19.70;73.40;;;;;;5105362;28;20020;-34
2021/10/22 09:26:21;;;;;;;0.90;0.80;;;19.70;73.50;;;;;;5100297;28;20024;-34
2021/10/22 09:28:48;;;;;;;1.05;0.80;;;19.70;73.50;;;;;;5104886;28;20079;-34
2021/10/22 09:31:15;;;;;;;0.60;0.60;;;19.70;73.50;;;;;;5102989;28;20058;-34
2021/10/22 09:33:51;;;;;;;;;;;19.70;73.50;;;;;;5104231;28;20049;-34
2021/10/22 09:36:37;;;;;;;1.10;0.80;;;19.70;73.50;;;;;;5105271;28;19908;-34
2021/10/22 09:39:08;;;;;;;0.73;0.70;;;19.70;73.60;;;;;;5092033;28;20040;-34
2021/10/22 09:41:38;;;;;;;0.70;0.70;;;19.70;73.50;;;;;;5084342;28;20048;-34
2021/10/22 09:44:30;;;;;;;0.60;0.60;;;19.70;73.50;;;;;;5084659;28;20028;-34
2021/10/22 09:47:05;;;;;;;0.70;0.70;;;19.70;73.60;;;;;;5084574;28;20040;-34
2021/10/22 09:49:36;;;;;;;1.15;0.98;;;19.70;73.60;;;;;;5084556;28;20039;-34
2021/10/22 09:52:03;;;;;;;0.70;0.70;;;19.60;73.60;;;;;;5084323;28;20046;-34
2021/10/22 09:54:32;;;;;;;1.23;0.80;;;19.60;74.30;;;;;;5084454;28;20016;-34
2021/10/22 09:57:07;;;;;;;0.85;0.85;;;19.60;73.60;;;;;;5093899;28;20028;-34
2021/10/22 09:59:33;;;;;;;0.85;0.82;;;19.60;73.60;;;;;;5104405;28;20053;-34
2021/10/22 10:02:01;;;;;;;1.00;0.70;;;19.60;73.60;;;;;;5104364;28;20118;-34
2021/10/22 10:04:27;;;;;;;0.95;0.88;;;19.60;73.60;;;;;;5104538;28;20027;-34
2021/10/22 10:06:57;;;;;;;1.33;0.80;;;19.60;73.60;;;;;;5102889;28;20052;-34
2021/10/22 10:09:27;;;;;;;0.60;0.60;;;19.60;73.60;;;;;;5104327;28;20038;-34
2021/10/22 10:11:54;;;;;;;0.95;0.88;;;19.60;74.40;;;;;;5103970;28;20060;-34
2021/10/22 10:14:23;;;;;;;1.10;1.00;;;19.60;73.70;;;;;;5104397;28;20047;-34
2021/10/22 10:16:49;;;;;;;0.70;0.70;;;19.60;73.70;;;;;;5098628;28;20036;-34
2021/10/22 10:19:31;;;;;;;1.02;0.85;;;19.60;73.60;;;;;;5082468;28;20112;-34
2021/10/22 10:22:13;;;;;;;0.95;0.90;;;19.60;73.70;;;;;;5082435;28;20024;-34
2021/10/22 10:24:48;;;;;;;0.80;0.80;;;19.60;73.70;;;;;;5083833;28;20016;-34
2021/10/22 10:27:26;;;;;;;0.80;0.80;;;19.60;73.80;;;;;;5095900;28;20024;-34
2021/10/22 10:29:58;;;;;;;1.00;0.80;;;19.60;73.80;;;;;;5104159;28;20593;-34
2021/10/22 10:32:27;;;;;;;0.82;0.82;;;19.60;73.80;;;;;;5103667;28;20035;-34
2021/10/22 10:34:54;;;;;;;0.82;0.82;;;19.60;73.80;;;;;;5104012;28;20023;-34
2021/10/22 10:37:21;;;;;;;;;;;19.60;73.80;;;;;;5102941;28;20032;-35
2021/10/22 10:39:57;;;;;;;0.80;0.80;;;19.50;73.80;;;;;;5103794;28;20000;-34
2021/10/22 10:42:36;;;;;;;1.05;0.75;;;19.50;73.70;;;;;;5103616;28;20024;-34
2021/10/22 10:45:10;;;;;;;1.30;0.88;;;19.50;73.80;;;;;;5103634;28;20035;-34
2021/10/22 10:47:44;;;;;;;0.95;0.90;;;19.60;73.90;;;;;;5103666;28;20028;-34
2021/10/22 10:50:11;;;;;;;1.02;0.90;;;19.50;73.80;;;;;;5102290;28;20142;-34
2021/10/22 10:52:37;;;;;;;0.80;0.75;;;19.50;73.80;;;;;;5102209;28;20074;-34
2021/10/22 10:55:31;;;;;;;2.03;0.82;;;19.50;73.80;;;;;;5103581;28;20049;-33
2021/10/22 10:58:10;;;;;;;0.93;0.82;;;19.50;73.80;;;;;;5103615;28;20036;-34
2021/10/22 11:00:40;;;;;;;1.15;0.90;;;19.50;73.80;;;;;;5103510;28;20163;-34
2021/10/22 11:03:17;;;;;;;1.20;1.10;;;19.50;73.90;;;;;;5103220;28;20024;-34
2021/10/22 11:05:50;;;;;;;0.85;0.85;;;19.50;74.00;;;;;;5103473;28;20097;-34
2021/10/22 11:08:23;;;;;;;1.05;0.95;;;19.50;73.90;;;;;;5103146;28;20451;-34
2021/10/22 11:11:15;;;;;;;1.50;1.02;;;19.50;73.90;;;;;;5101896;28;20020;-34
2021/10/22 11:13:54;;;;;;;1.20;0.90;;;19.50;73.90;;;;;;5101510;28;20031;-34
2021/10/22 11:16:25;;;;;;;1.02;0.88;;;19.40;73.90;;;;;;5083590;28;20035;-34
2021/10/22 11:18:52;;;;;;;0.85;0.85;;;19.40;73.80;;;;;;5083122;28;20108;-34
2021/10/22 11:21:23;;;;;;;1.27;1.05;;;19.40;73.90;;;;;;5081749;28;20021;-34
2021/10/22 11:23:50;;;;;;;1.00;0.80;;;19.40;73.90;;;;;;5082762;28;20039;-34
2021/10/22 11:26:19;;;;;;;1.00;0.90;;;19.40;73.90;;;;;;5085045;28;20036;-34
2021/10/22 11:29:12;;;;;;;0.90;0.73;;;19.40;73.90;;;;;;5102996;28;20028;-34
2021/10/22 11:31:46;;;;;;;0.90;0.90;;;19.50;74.10;;;;;;5102960;28;20044;-34
2021/10/22 11:34:26;;;;;;;1.00;0.90;;;19.50;74.10;;;;;;5102967;28;20388;-34
2021/10/22 11:37:23;;;;;;;1.40;1.10;;;19.40;74.00;;;;;;5103045;28;20393;-34
2021/10/22 11:39:53;;;;;;;0.90;0.90;;;19.40;74.00;;;;;;5102820;28;20050;-34
2021/10/22 11:42:30;;;;;;;0.90;0.90;;;19.40;74.80;;;;;;5101426;28;20055;-34
2021/10/22 11:45:07;;;;;;;1.40;1.00;;;19.40;74.10;;;;;;5103109;28;20512;-34
2021/10/22 11:47:39;;;;;;;1.30;1.13;;;19.40;74.10;;;;;;5102819;28;20028;-34
2021/10/22 11:50:29;;;;;;;1.00;0.90;;;19.40;74.10;;;;;;5101761;28;20031;-34
2021/10/22 11:53:12;;;;;;;0.93;0.93;;;19.40;74.20;;;;;;5103689;28;20099;-34
2021/10/22 11:55:39;;;;;;;1.45;1.10;;;19.40;74.10;;;;;;5106455;28;20024;-34
2021/10/22 11:58:09;;;;;;;1.20;1.10;;;19.40;74.20;;;;;;5105457;28;20031;-34
2021/10/22 12:00:56;;;;;;;1.35;1.20;;;19.30;74.10;;;;;;5106829;28;20100;-34
2021/10/22 12:03:42;;;;;;;1.35;1.25;;;19.30;74.10;;;;;;5106310;28;20036;-34
2021/10/22 12:06:21;;;;;;;1.38;1.20;;;19.30;74.10;;;;;;5106714;28;20028;-34
2021/10/22 12:08:48;;;;;;;1.30;1.20;;;19.30;74.10;;;;;;5106455;28;20059;-34
2021/10/22 12:11:15;;;;;;;1.10;1.00;;;19.30;74.10;;;;;;5106423;28;20488;-34
2021/10/22 12:13:43;;;;;;;1.13;1.02;;;19.30;74.10;;;;;;5103168;28;20028;-34
2021/10/22 12:16:16;;;;;;;1.20;1.10;;;19.30;74.20;;;;;;5088331;28;20036;-34
2021/10/22 12:18:55;;;;;;;1.10;0.98;;;19.30;74.20;;;;;;5084818;28;20046;-34
2021/10/22 12:21:25;;;;;;;1.33;1.10;;;19.30;74.20;;;;;;5087805;28;20023;-34
2021/10/22 12:23:58;;;;;;;1.15;1.05;;;19.30;74.30;;;;;;5106264;28;20058;-34
2021/10/22 12:26:25;;;;;;;1.83;1.20;;;19.30;74.30;;;;;;5106179;28;20556;-34
2021/10/22 12:29:04;;;;;;;;;;;19.30;74.30;;;;;;5105515;28;20762;-34
2021/10/22 12:31:44;;;;;;;1.25;1.10;;;19.20;74.20;;;;;;5106246;28;19908;-34
2021/10/22 12:34:14;;;;;;;1.88;1.20;;;19.20;74.20;;;;;;5104686;28;20035;-34
2021/10/22 12:36:45;;;;;;;1.63;1.33;;;19.20;74.30;;;;;;5106146;28;20052;-34
2021/10/22 12:39:25;;;;;;;1.58;1.48;;;19.20;74.30;;;;;;5105973;28;20031;-34
2021/10/22 12:41:51;;;;;;;1.27;1.15;;;19.20;74.40;;;;;;5105904;28;20028;-34
2021/10/22 12:44:19;;;;;;;1.40;1.30;;;19.30;74.40;;;;;;5105790;28;20031;-34
2021/10/22 12:47:00;;;;;;;1.30;1.20;;;19.20;74.40;;;;;;5106140;28;20437;-34
2021/10/22 12:49:30;;;;;;;1.23;1.13;;;19.20;74.40;;;;;;5104709;28;20135;-34
2021/10/22 12:51:59;;;;;;;1.30;1.20;;;19.20;74.40;;;;;;5106189;28;20042;-34
2021/10/22 12:54:25;;;;;;;1.33;1.23;;;19.20;74.40;;;;;;5105595;28;20016;-34
2021/10/22 12:56:59;;;;;;;1.20;1.13;;;19.20;74.40;;;;;;5103598;28;20032;-34
2021/10/22 12:59:29;;;;;;;1.30;1.20;;;19.20;74.40;;;;;;5105853;28;20016;-35
2021/10/22 13:01:56;;;;;;;1.30;1.20;;;19.20;74.50;;;;;;5104574;28;20031;-34